San Diego, California
Traffic Map
Current Weather Conditions
San Diego, California
Broken Clouds
Broken Clouds
21°
Feels Like: 21°
Wind Chill: 21° Ceiling: 22000
Heat Index: 21° Visibility: 10mi
Dew Point: 17° Wind: 0mph
Humidity: 78% Direction: ° ()
Pressure: 29.99in Gusts: 0mph
Raw Report DataKSAN 310451Z 00000KT 10SM FEW017 BKN220 21/17 A2999 RMK AO2 SLP154 T02060167
Traffic Incident Summary
Active as of:
Severity:
Category:
InformationThere was an issue retrieving the traffic information for this location. Please try a different location or try again shortly.
Advertisements
Track Severe Weather on mobile